Time;durP1;ratioP1;P1;durP2;ratioP2;P2;SDS_P1;SDS_P2;PMS_P1;PMS_P2;Temp;Humidity;BMP_temperature;BMP_pressure;BME280_temperature;BME280_humidity;BME280_pressure;Samples;Min_cycle;Max_cycle;Signal;HPM_P1;HPM_P2
2020/12/23 00:02:04;;;;;;;10.50;8.65;;;11.60;99.90;;;;;;5072008;28;20055;-72
2020/12/23 00:04:31;;;;;;;;;;;11.50;99.90;;;;;;5071744;28;20044;-73
2020/12/23 00:06:58;;;;;;;9.80;4.80;;;11.50;99.90;;;;;;5070514;28;19920;-72
2020/12/23 00:09:25;;;;;;;7.63;3.70;;;11.50;99.90;;;;;;5070829;28;20041;-73
2020/12/23 00:11:52;;;;;;;4.22;2.60;;;11.50;99.90;;;;;;5069241;28;20047;-72
2020/12/23 00:14:19;;;;;;;3.92;2.08;;;11.50;99.90;;;;;;5071587;28;20098;-73
2020/12/23 00:16:46;;;;;;;;;;;11.50;99.90;;;;;;5069791;28;20048;-72
2020/12/23 00:19:12;;;;;;;4.55;4.00;;;11.50;99.90;;;;;;5051680;28;19921;-72
2020/12/23 00:21:39;;;;;;;6.05;3.85;;;11.50;99.90;;;;;;5059848;28;20048;-72
2020/12/23 00:24:06;;;;;;;6.78;2.40;;;11.40;99.90;;;;;;5071543;28;20124;-72
2020/12/23 00:26:33;;;;;;;4.60;2.80;;;11.40;99.90;;;;;;5068950;28;20052;-72
2020/12/23 00:28:59;;;;;;;6.18;2.65;;;11.40;99.90;;;;;;5075484;28;20044;-72
2020/12/23 00:31:26;;;;;;;2.63;2.33;;;11.30;99.90;;;;;;5071656;28;20036;-72
2020/12/23 00:33:54;;;;;;;4.97;3.03;;;11.30;99.90;;;;;;5075680;28;20050;-72
2020/12/23 00:36:21;;;;;;;4.05;2.17;;;11.30;99.90;;;;;;5071939;28;20049;-77
2020/12/23 00:38:48;;;;;;;;;;;11.30;99.90;;;;;;5075608;28;20049;-71
2020/12/23 00:41:15;;;;;;;5.60;2.92;;;11.30;99.90;;;;;;5072212;28;20035;-70
2020/12/23 00:43:42;;;;;;;7.97;4.80;;;11.30;99.90;;;;;;5074665;28;20522;-73
2020/12/23 00:46:12;;;;;;;8.88;5.00;;;11.30;99.90;;;;;;5074682;28;20048;-78
2020/12/23 00:48:39;;;;;;;9.43;4.88;;;11.30;99.90;;;;;;5073842;28;20071;-72
2020/12/23 00:51:10;;;;;;;5.47;4.00;;;11.40;99.90;;;;;;5073740;28;20115;-73
2020/12/23 00:53:37;;;;;;;5.65;3.00;;;11.40;99.90;;;;;;5071251;28;20056;-73
2020/12/23 00:56:03;;;;;;;6.03;2.85;;;11.30;99.90;;;;;;5070761;28;20048;-72
2020/12/23 00:58:31;;;;;;;6.03;2.72;;;11.40;99.90;;;;;;5068050;28;20048;-72
2020/12/23 01:00:58;;;;;;;7.35;3.58;;;11.40;99.90;;;;;;5075171;28;20040;-73
2020/12/23 01:03:24;;;;;;;11.07;2.55;;;11.30;99.90;;;;;;5071273;28;20044;-72
2020/12/23 01:05:51;;;;;;;4.15;1.90;;;11.30;99.90;;;;;;5074640;28;20106;-72
2020/12/23 01:08:17;;;;;;;;;;;11.30;99.90;;;;;;5072357;28;20029;-73
2020/12/23 01:10:45;;;;;;;4.05;2.00;;;11.30;99.90;;;;;;5073682;28;19920;-72
2020/12/23 01:13:12;;;;;;;3.22;1.95;;;11.30;99.90;;;;;;5071732;28;20049;-72
2020/12/23 01:15:39;;;;;;;2.50;1.73;;;11.30;99.90;;;;;;5073947;28;20454;-72
2020/12/23 01:18:06;;;;;;;3.55;2.40;;;11.20;99.90;;;;;;5071478;28;20067;-72
2020/12/23 01:20:32;;;;;;;3.55;1.92;;;11.30;99.90;;;;;;5073800;28;20113;-72
2020/12/23 01:22:59;;;;;;;4.13;1.88;;;11.20;99.90;;;;;;5055200;28;20044;-72
2020/12/23 01:25:26;;;;;;;6.05;2.60;;;11.20;99.90;;;;;;5073955;28;20388;-73
2020/12/23 01:27:52;;;;;;;2.55;1.85;;;11.20;99.90;;;;;;5071413;28;20044;-73
2020/12/23 01:30:19;;;;;;;6.30;2.20;;;11.20;99.90;;;;;;5074612;28;20049;-71
2020/12/23 01:32:46;;;;;;;;;;;11.10;99.90;;;;;;5074681;28;20044;-70
2020/12/23 01:35:13;;;;;;;3.20;1.83;;;11.10;99.90;;;;;;5071598;28;20280;-72
2020/12/23 01:37:39;;;;;;;3.00;1.73;;;11.10;99.90;;;;;;5072948;28;20079;-70
2020/12/23 01:40:06;;;;;;;3.45;1.45;;;11.00;99.90;;;;;;5071533;28;20032;-71
2020/12/23 01:42:33;;;;;;;2.03;1.20;;;11.00;99.90;;;;;;5073489;28;20044;-71
2020/12/23 01:44:59;;;;;;;2.55;1.40;;;11.00;99.90;;;;;;5071166;28;20047;-73
2020/12/23 01:47:27;;;;;;;;;;;11.00;99.90;;;;;;5073720;28;20063;-73
2020/12/23 01:49:55;;;;;;;;;;;11.00;99.90;;;;;;5071388;28;19920;-71
2020/12/23 01:52:22;;;;;;;5.20;1.48;;;10.90;99.90;;;;;;5073697;28;19969;-76
2020/12/23 01:54:50;;;;;;;1.85;1.40;;;10.90;99.90;;;;;;5071292;28;20075;-72
2020/12/23 01:57:17;;;;;;;3.70;1.13;;;10.90;99.90;;;;;;5073790;28;20059;-74
2020/12/23 01:59:45;;;;;;;1.08;0.98;;;11.00;99.90;;;;;;5070274;28;20593;-72
2020/12/23 02:02:28;;;;;;;3.20;1.13;;;11.00;99.90;;;;;;5072497;28;20048;-74
2020/12/23 02:04:57;;;;;;;2.28;0.50;;;11.00;99.90;;;;;;5070573;28;20504;-72
2020/12/23 02:07:24;;;;;;;1.38;0.77;;;11.00;99.90;;;;;;5073390;28;20094;-72
2020/12/23 02:09:52;;;;;;;0.32;0.13;;;11.00;99.90;;;;;;5069128;28;20045;-72
2020/12/23 02:12:18;;;;;;;1.55;0.63;;;11.00;99.90;;;;;;5073598;28;20045;-73
2020/12/23 02:14:45;;;;;;;0.50;0.30;;;11.00;99.90;;;;;;5070469;28;20071;-72
2020/12/23 02:17:12;;;;;;;;;;;11.00;99.90;;;;;;5073971;28;20056;-72
2020/12/23 02:19:49;;;;;;;0.82;0.60;;;11.00;99.90;;;;;;5073204;28;19969;-72
2020/12/23 02:22:18;;;;;;;4.47;0.55;;;11.00;99.90;;;;;;5072555;28;20500;-72
2020/12/23 02:24:46;;;;;;;1.35;0.20;;;11.00;99.90;;;;;;5072773;28;20044;-72
2020/12/23 02:27:14;;;;;;;0.85;0.70;;;11.00;99.90;;;;;;5070233;28;20052;-73
2020/12/23 02:29:44;;;;;;;0.20;0.20;;;11.00;99.90;;;;;;5072904;28;20235;-72
2020/12/23 02:32:11;;;;;;;0.77;0.40;;;11.00;99.90;;;;;;5069070;28;20075;-76
2020/12/23 02:34:38;;;;;;;1.48;0.40;;;11.00;99.90;;;;;;5072651;28;20037;-72
2020/12/23 02:37:06;;;;;;;1.65;0.68;;;11.00;99.90;;;;;;5070126;28;20405;-72
2020/12/23 02:39:33;;;;;;;0.95;0.60;;;11.00;99.90;;;;;;5072578;28;20080;-72
2020/12/23 02:42:03;;;;;;;4.38;0.40;;;11.00;99.90;;;;;;5069876;28;20116;-71
2020/12/23 02:44:30;;;;;;;3.03;0.60;;;11.00;99.90;;;;;;5072521;28;20083;-72
2020/12/23 02:46:58;;;;;;;1.23;0.40;;;11.00;99.90;;;;;;5069715;28;20059;-72
2020/12/23 02:49:26;;;;;;;3.95;0.30;;;11.00;99.90;;;;;;5071609;28;20040;-73
2020/12/23 02:51:53;;;;;;;3.20;0.30;;;11.10;99.90;;;;;;5069928;28;20052;-72
2020/12/23 02:54:20;;;;;;;0.75;0.15;;;11.20;99.90;;;;;;5072527;28;20048;-73
2020/12/23 02:56:47;;;;;;;1.77;0.20;;;11.20;99.90;;;;;;5070353;28;20151;-72
2020/12/23 02:59:14;;;;;;;1.83;0.20;;;11.20;99.90;;;;;;5072538;28;20428;-72
2020/12/23 03:01:41;;;;;;;0.80;0.10;;;11.20;99.90;;;;;;5069224;28;21650;-72
2020/12/23 03:04:08;;;;;;;0.55;0.10;;;11.30;99.90;;;;;;5072667;28;20041;-73
2020/12/23 03:06:35;;;;;;;0.68;0.10;;;11.40;99.90;;;;;;5069377;28;20049;-73
2020/12/23 03:09:04;;;;;;;0.10;0.00;;;11.50;99.90;;;;;;5070975;28;20036;-73
2020/12/23 03:11:30;;;;;;;4.57;0.20;;;11.50;99.90;;;;;;5071939;28;20036;-72
2020/12/23 03:13:57;;;;;;;0.85;0.17;;;11.50;99.90;;;;;;5069310;28;20040;-72
2020/12/23 03:16:24;;;;;;;;;;;11.50;99.90;;;;;;5072502;28;20048;-73
2020/12/23 03:18:51;;;;;;;2.47;0.45;;;11.50;99.90;;;;;;5069190;28;20349;-73
2020/12/23 03:21:18;;;;;;;0.00;0.00;;;11.50;99.90;;;;;;5072430;28;20127;-73
2020/12/23 03:23:44;;;;;;;0.05;0.05;;;11.50;99.90;;;;;;5068461;28;20070;-72
2020/12/23 03:26:11;;;;;;;0.30;0.10;;;11.50;99.90;;;;;;5072471;28;20037;-71
2020/12/23 03:28:37;;;;;;;0.70;0.10;;;11.50;99.90;;;;;;5068435;28;20040;-73
2020/12/23 03:31:04;;;;;;;1.55;0.38;;;11.50;99.90;;;;;;5072426;28;20074;-72
2020/12/23 03:33:32;;;;;;;0.10;0.10;;;11.40;99.90;;;;;;5068694;28;20051;-73
2020/12/23 03:35:59;;;;;;;2.10;0.52;;;11.50;99.90;;;;;;5072186;28;20565;-72
2020/12/23 03:38:26;;;;;;;0.52;0.20;;;11.50;99.90;;;;;;5068551;28;20473;-72
2020/12/23 03:40:53;;;;;;;;;;;11.40;99.90;;;;;;5072548;28;20041;-72
2020/12/23 03:43:19;;;;;;;2.15;0.20;;;11.40;99.90;;;;;;5068913;28;19936;-73
2020/12/23 03:45:47;;;;;;;1.25;0.10;;;11.40;99.90;;;;;;5072398;28;20047;-71
2020/12/23 03:48:13;;;;;;;;;;;11.30;99.90;;;;;;5070256;28;20048;-73
2020/12/23 03:50:40;;;;;;;0.63;0.20;;;11.20;99.90;;;;;;5070707;28;19932;-73
2020/12/23 03:53:07;;;;;;;1.40;0.20;;;11.30;99.90;;;;;;5072118;28;20064;-73
2020/12/23 03:55:33;;;;;;;0.40;0.40;;;11.20;99.90;;;;;;5068780;28;20048;-72
2020/12/23 03:58:00;;;;;;;1.75;0.30;;;11.30;99.90;;;;;;5072701;28;20044;-72
2020/12/23 04:00:26;;;;;;;1.52;0.40;;;11.20;99.90;;;;;;5068596;28;20051;-72
2020/12/23 04:02:53;;;;;;;2.67;0.43;;;11.30;99.90;;;;;;5070805;28;20056;-72
2020/12/23 04:05:20;;;;;;;2.47;1.05;;;11.30;99.90;;;;;;5068859;28;20045;-73
2020/12/23 04:07:47;;;;;;;1.02;0.90;;;11.40;99.90;;;;;;5072145;28;20044;-72
2020/12/23 04:10:14;;;;;;;3.28;2.00;;;11.40;99.90;;;;;;5066891;28;20131;-72
2020/12/23 04:12:41;;;;;;;;;;;11.40;99.90;;;;;;5072103;28;20044;-72
2020/12/23 04:15:10;;;;;;;6.55;4.28;;;11.50;99.90;;;;;;5068943;28;19921;-71
2020/12/23 04:17:37;;;;;;;8.13;6.43;;;11.50;99.90;;;;;;5071049;28;20048;-73
2020/12/23 04:20:04;;;;;;;;;;;11.50;99.90;;;;;;5069094;28;20576;-71
2020/12/23 04:22:31;;;;;;;8.45;7.28;;;11.50;99.90;;;;;;5070731;28;19927;-73
2020/12/23 04:24:59;;;;;;;10.30;7.85;;;11.40;99.90;;;;;;5068321;28;20107;-73
2020/12/23 04:27:27;;;;;;;11.25;8.70;;;11.40;99.90;;;;;;5071091;28;20054;-73
2020/12/23 04:29:53;;;;;;;13.80;10.00;;;11.40;99.90;;;;;;5068600;28;20040;-73
2020/12/23 04:32:20;;;;;;;14.88;11.10;;;11.30;99.90;;;;;;5071462;28;20041;-73
2020/12/23 04:34:46;;;;;;;;;;;11.30;99.90;;;;;;5072028;28;20051;-72
2020/12/23 04:37:13;;;;;;;13.60;8.95;;;11.20;99.90;;;;;;5068589;28;20016;-70
2020/12/23 04:39:40;;;;;;;14.85;9.90;;;11.20;99.90;;;;;;5070419;28;20049;-73
2020/12/23 04:42:07;;;;;;;10.20;9.18;;;11.20;99.90;;;;;;5068404;28;20036;-72
2020/12/23 04:44:35;;;;;;;12.88;10.00;;;11.20;99.90;;;;;;5070296;28;20107;-73
2020/12/23 04:47:03;;;;;;;11.27;8.75;;;11.20;99.90;;;;;;5068503;28;20399;-72
2020/12/23 04:49:36;;;;;;;13.75;9.38;;;11.10;99.90;;;;;;5070757;28;20135;-73
2020/12/23 04:52:06;;;;;;;14.40;9.40;;;11.10;99.90;;;;;;5068525;28;20037;-72
2020/12/23 04:54:33;;;;;;;12.73;10.32;;;11.10;99.90;;;;;;5070039;28;20489;-72
2020/12/23 04:57:00;;;;;;;12.35;9.18;;;11.10;99.90;;;;;;5068508;28;20055;-71
2020/12/23 04:59:27;;;;;;;14.88;10.65;;;11.20;99.90;;;;;;5070317;28;20054;-72
2020/12/23 05:01:54;;;;;;;14.57;9.85;;;11.20;99.90;;;;;;5068419;28;20075;-72
2020/12/23 05:04:21;;;;;;;;;;;11.10;99.90;;;;;;5071403;28;20047;-75
2020/12/23 05:06:48;;;;;;;13.57;11.50;;;11.20;99.90;;;;;;5057941;28;19927;-72
2020/12/23 05:09:15;;;;;;;12.65;9.98;;;11.20;99.90;;;;;;5070235;28;20293;-72
2020/12/23 05:11:41;;;;;;;;;;;11.20;99.90;;;;;;5068290;28;20048;-72
2020/12/23 05:14:10;;;;;;;14.15;11.27;;;11.20;99.90;;;;;;5074496;28;20060;-72
2020/12/23 05:16:40;;;;;;;16.40;10.82;;;11.20;99.90;;;;;;5072123;28;20051;-76
2020/12/23 05:19:06;;;;;;;14.27;10.75;;;11.20;99.90;;;;;;5074470;28;20120;-71
2020/12/23 05:21:33;;;;;;;17.35;11.85;;;11.20;99.90;;;;;;5073949;28;20040;-71
2020/12/23 05:23:59;;;;;;;17.00;12.95;;;11.20;99.90;;;;;;5071845;28;20049;-71
2020/12/23 05:26:26;;;;;;;19.60;13.88;;;11.20;99.90;;;;;;5073529;28;20068;-71
2020/12/23 05:28:53;;;;;;;24.23;15.80;;;11.10;99.90;;;;;;5071909;28;20500;-72
2020/12/23 05:31:21;;;;;;;25.10;16.55;;;11.10;99.90;;;;;;5074618;28;20052;-72
2020/12/23 05:33:50;;;;;;;28.20;16.25;;;11.10;99.90;;;;;;5071874;28;20397;-70
2020/12/23 05:36:18;;;;;;;22.50;14.93;;;11.10;99.90;;;;;;5074220;28;20500;-70
2020/12/23 05:38:46;;;;;;;22.15;15.40;;;11.10;99.90;;;;;;5070951;28;20361;-74
2020/12/23 05:41:14;;;;;;;20.77;12.95;;;11.10;99.90;;;;;;5074094;28;20041;-71
2020/12/23 05:43:41;;;;;;;10.65;7.85;;;11.10;99.90;;;;;;5070945;28;20040;-72
2020/12/23 05:46:10;;;;;;;14.30;8.30;;;11.10;99.90;;;;;;5074063;28;20389;-71
2020/12/23 05:48:40;;;;;;;12.52;9.05;;;11.10;99.90;;;;;;5070813;28;20068;-69
2020/12/23 05:51:09;;;;;;;14.07;9.43;;;11.10;99.90;;;;;;5074331;28;20049;-71
2020/12/23 05:53:38;;;;;;;15.50;9.75;;;11.10;99.90;;;;;;5070940;28;20060;-72
2020/12/23 05:56:06;;;;;;;15.38;10.35;;;11.10;99.90;;;;;;5074399;28;20041;-72
2020/12/23 05:58:34;;;;;;;17.50;11.68;;;11.10;99.90;;;;;;5070525;28;20044;-72
2020/12/23 06:01:03;;;;;;;16.13;11.35;;;11.10;99.90;;;;;;5072173;28;20043;-72
2020/12/23 06:03:46;;;;;;;19.65;12.57;;;11.10;99.90;;;;;;5070760;28;20094;-72
2020/12/23 06:06:20;;;;;;;21.90;12.98;;;11.20;99.90;;;;;;5073296;28;20045;-72
2020/12/23 06:08:51;;;;;;;21.25;13.85;;;11.10;99.90;;;;;;5070788;28;20040;-72
2020/12/23 06:11:29;;;;;;;22.33;13.30;;;11.20;99.90;;;;;;5073591;28;20147;-72
2020/12/23 06:14:08;;;;;;;24.88;16.23;;;11.20;99.90;;;;;;5070950;28;20485;-72
2020/12/23 06:16:37;;;;;;;26.02;15.57;;;11.20;99.90;;;;;;5072660;28;20068;-72
2020/12/23 06:19:05;;;;;;;31.05;16.77;;;11.20;99.90;;;;;;5071807;28;20127;-72
2020/12/23 06:21:33;;;;;;;25.48;15.65;;;11.20;99.90;;;;;;5072921;28;20048;-72
2020/12/23 06:24:05;;;;;;;26.73;16.85;;;11.20;99.90;;;;;;5073473;28;20182;-71
2020/12/23 06:26:33;;;;;;;26.08;16.50;;;11.30;99.90;;;;;;5070484;28;20064;-71
2020/12/23 06:29:01;;;;;;;25.08;16.25;;;11.30;99.90;;;;;;5073255;28;20542;-72
2020/12/23 06:31:31;;;;;;;26.60;18.33;;;11.30;99.90;;;;;;5069724;28;20063;-72
2020/12/23 06:33:58;;;;;;;24.25;16.83;;;11.30;99.90;;;;;;5073143;28;20041;-71
2020/12/23 06:36:29;;;;;;;28.08;16.63;;;11.30;99.90;;;;;;5069769;28;20049;-71
2020/12/23 06:39:28;;;;;;;27.02;17.70;;;11.30;99.90;;;;;;5073025;28;20097;-71
2020/12/23 06:42:11;;;;;;;22.50;16.35;;;11.20;99.90;;;;;;5070512;28;20101;-71
2020/12/23 06:45:00;;;;;;;24.50;15.30;;;11.20;99.90;;;;;;5072012;28;20089;-71
2020/12/23 06:47:28;;;;;;;27.50;14.60;;;11.30;99.90;;;;;;5083455;28;20098;-72
2020/12/23 06:49:56;;;;;;;20.83;13.88;;;11.20;99.90;;;;;;5053156;28;20127;-71
2020/12/23 06:52:38;;;;;;;23.40;14.68;;;11.20;99.90;;;;;;5068000;28;20040;-74
2020/12/23 06:55:06;;;;;;;24.83;15.60;;;11.20;99.90;;;;;;5072813;28;20119;-71
2020/12/23 06:57:55;;;;;;;21.77;14.52;;;11.20;99.90;;;;;;5069181;28;20053;-70
2020/12/23 07:00:41;;;;;;;24.48;15.82;;;11.20;99.90;;;;;;5072223;28;20397;-76
2020/12/23 07:03:12;;;;;;;28.88;17.35;;;11.20;99.90;;;;;;5065034;28;20051;-70
2020/12/23 07:05:43;;;;;;;20.73;14.40;;;11.10;99.90;;;;;;5074458;28;20059;-71
2020/12/23 07:08:12;;;;;;;21.85;14.55;;;11.20;99.90;;;;;;5070879;28;20043;-69
2020/12/23 07:10:40;;;;;;;25.50;15.07;;;11.20;99.90;;;;;;5071088;28;20044;-70
2020/12/23 07:13:11;;;;;;;27.38;17.70;;;11.20;99.90;;;;;;5069567;28;20063;-70
2020/12/23 07:15:39;;;;;;;24.88;16.02;;;11.20;99.90;;;;;;5052018;28;20053;-69
2020/12/23 07:18:07;;;;;;;25.10;16.23;;;11.20;99.90;;;;;;5065454;28;20032;-69
2020/12/23 07:20:38;;;;;;;28.98;18.20;;;11.10;99.90;;;;;;5071361;28;20086;-69
2020/12/23 07:23:07;;;;;;;32.30;18.90;;;11.10;99.90;;;;;;5063937;28;20064;-69
2020/12/23 07:25:39;;;;;;;36.63;20.58;;;11.10;99.90;;;;;;5071453;28;20098;-69
2020/12/23 07:28:09;;;;;;;35.17;19.75;;;11.00;99.90;;;;;;5069190;28;20040;-69
2020/12/23 07:30:40;;;;;;;40.80;21.38;;;11.00;99.90;;;;;;5051392;28;20123;-69
2020/12/23 07:33:12;;;;;;;37.95;20.10;;;11.10;99.90;;;;;;5060006;28;20115;-70
2020/12/23 07:35:40;;;;;;;36.38;19.13;;;11.10;99.90;;;;;;5071211;28;20409;-71
2020/12/23 07:38:08;;;;;;;35.80;19.17;;;11.00;99.90;;;;;;5069186;28;20032;-70
2020/12/23 07:40:36;;;;;;;34.53;19.38;;;11.00;99.90;;;;;;5071487;28;20068;-69
2020/12/23 07:43:03;;;;;;;31.55;18.30;;;11.00;99.90;;;;;;5067629;28;20103;-70
2020/12/23 07:45:31;;;;;;;37.72;18.48;;;11.10;99.90;;;;;;5069519;28;20488;-70
2020/12/23 07:48:01;;;;;;;35.75;18.42;;;11.10;99.90;;;;;;5065553;28;20041;-70
2020/12/23 07:50:29;;;;;;;34.20;19.00;;;11.00;99.90;;;;;;5070766;28;20079;-71
2020/12/23 07:52:56;;;;;;;36.40;19.35;;;11.10;99.90;;;;;;5068502;28;20036;-71
2020/12/23 07:55:24;;;;;;;31.33;18.05;;;11.10;99.90;;;;;;5070973;28;20064;-71
2020/12/23 07:57:51;;;;;;;29.33;16.55;;;11.10;99.90;;;;;;5067789;28;20040;-70
2020/12/23 08:00:19;;;;;;;32.55;18.25;;;11.10;99.90;;;;;;5070766;28;20264;-70
2020/12/23 08:02:47;;;;;;;25.17;15.68;;;11.10;99.90;;;;;;5063476;28;20045;-69
2020/12/23 08:05:14;;;;;;;26.58;15.88;;;11.10;99.90;;;;;;5066901;28;20084;-70
2020/12/23 08:07:42;;;;;;;28.08;17.13;;;11.10;99.90;;;;;;5069725;28;20147;-71
2020/12/23 08:10:14;;;;;;;30.33;17.80;;;11.20;99.90;;;;;;5062035;28;20120;-71
2020/12/23 08:12:42;;;;;;;34.67;19.70;;;11.20;99.90;;;;;;5051066;28;20045;-70
2020/12/23 08:15:14;;;;;;;40.85;20.73;;;11.20;99.90;;;;;;5065395;28;20097;-70
2020/12/23 08:17:41;;;;;;;35.15;19.17;;;11.20;99.90;;;;;;5066114;28;20382;-70
2020/12/23 08:20:11;;;;;;;40.13;21.17;;;11.20;99.90;;;;;;5061533;28;20102;-70
2020/12/23 08:22:39;;;;;;;37.53;20.52;;;11.20;99.90;;;;;;5070887;28;20055;-70
2020/12/23 08:25:11;;;;;;;43.20;21.42;;;11.20;99.90;;;;;;5067931;28;20396;-70
2020/12/23 08:27:39;;;;;;;34.42;19.10;;;11.20;99.90;;;;;;5069688;28;20048;-71
2020/12/23 08:30:07;;;;;;;32.50;18.50;;;11.20;99.90;;;;;;5067783;28;20544;-70
2020/12/23 08:32:37;;;;;;;27.42;15.40;;;11.20;99.90;;;;;;5070250;28;20036;-70
2020/12/23 08:35:06;;;;;;;26.25;15.40;;;11.20;99.90;;;;;;5068104;28;20071;-72
2020/12/23 08:37:36;;;;;;;23.73;14.52;;;11.20;99.90;;;;;;5070546;28;20433;-70
2020/12/23 08:40:05;;;;;;;24.48;16.25;;;11.30;99.90;;;;;;5067724;28;20094;-70
2020/12/23 08:42:31;;;;;;;25.95;16.38;;;11.30;99.90;;;;;;5066609;28;20504;-70
2020/12/23 08:44:58;;;;;;;22.70;16.20;;;11.20;99.90;;;;;;5066485;28;20106;-69
2020/12/23 08:47:30;;;;;;;26.98;17.65;;;11.20;99.90;;;;;;5064091;28;20118;-70
2020/12/23 08:49:57;;;;;;;27.58;20.83;;;11.30;99.90;;;;;;5058382;28;20106;-69
2020/12/23 08:52:25;;;;;;;30.25;19.30;;;11.20;99.90;;;;;;5059701;28;20488;-70
2020/12/23 08:54:53;;;;;;;25.05;16.08;;;11.20;99.90;;;;;;5089966;28;20450;-69
2020/12/23 08:57:24;;;;;;;30.42;16.95;;;11.30;99.90;;;;;;5076693;28;20048;-73
2020/12/23 08:59:51;;;;;;;28.33;17.27;;;11.30;99.90;;;;;;5095188;28;20040;-70
2020/12/23 09:02:18;;;;;;;29.98;18.05;;;11.30;99.90;;;;;;5069076;28;20078;-70
2020/12/23 09:04:45;;;;;;;29.88;17.65;;;11.30;99.90;;;;;;5063125;28;20041;-69
2020/12/23 09:07:13;;;;;;;27.63;17.90;;;11.20;99.90;;;;;;5060385;28;20123;-71
2020/12/23 09:09:40;;;;;;;36.50;21.73;;;11.30;99.90;;;;;;5066157;28;20052;-70
2020/12/23 09:12:07;;;;;;;35.10;20.88;;;11.20;99.90;;;;;;5072123;28;20455;-69
2020/12/23 09:14:36;;;;;;;30.13;17.92;;;11.30;99.90;;;;;;5073593;28;20049;-72
2020/12/23 09:17:06;;;;;;;34.55;19.80;;;11.40;99.90;;;;;;5065526;28;20052;-73
2020/12/23 09:19:47;;;;;;;32.55;19.85;;;11.30;99.90;;;;;;5054164;28;20103;-72
2020/12/23 09:22:23;;;;;;;39.20;22.98;;;11.40;99.90;;;;;;5060598;28;20044;-71
2020/12/23 09:24:49;;;;;;;36.72;23.10;;;11.30;99.90;;;;;;5056528;28;20516;-71
2020/12/23 09:27:20;;;;;;;;;;;11.30;99.90;;;;;;5057394;28;20428;-71
2020/12/23 09:29:46;;;;;;;34.05;20.23;;;11.40;99.90;;;;;;5070936;28;19928;-70
2020/12/23 09:32:13;;;;;;;;;;;11.40;99.90;;;;;;5069763;28;20041;-72
2020/12/23 09:34:39;;;;;;;39.80;22.17;;;11.40;99.90;;;;;;5088096;28;20042;-70
2020/12/23 09:37:06;;;;;;;59.45;43.42;;;11.40;99.90;;;;;;5087911;28;20043;-70
2020/12/23 09:39:36;;;;;;;;;;;11.50;99.90;;;;;;5094314;28;20117;-70
2020/12/23 09:42:04;;;;;;;46.83;24.70;;;11.40;99.90;;;;;;5079720;28;19924;-70
2020/12/23 09:44:32;;;;;;;42.03;23.63;;;11.40;99.90;;;;;;5071652;28;20048;-70
2020/12/23 09:47:01;;;;;;;45.28;24.90;;;11.40;99.90;;;;;;5073402;28;20044;-74
2020/12/23 09:49:28;;;;;;;43.92;27.17;;;11.40;99.90;;;;;;5070854;28;20440;-70
2020/12/23 09:51:55;;;;;;;36.55;22.10;;;11.50;99.90;;;;;;5074176;28;20055;-70
2020/12/23 09:54:22;;;;;;;;;;;11.60;99.90;;;;;;5071356;28;20041;-74
2020/12/23 09:56:53;;;;;;;40.65;25.65;;;11.70;99.90;;;;;;5073888;28;19920;-70
2020/12/23 09:59:20;;;;;;;34.42;21.30;;;11.60;99.90;;;;;;5070717;28;20044;-72
2020/12/23 10:01:48;;;;;;;34.13;20.55;;;11.60;99.90;;;;;;5071891;28;20044;-70
2020/12/23 10:04:14;;;;;;;34.05;21.05;;;11.70;99.90;;;;;;5070412;28;20045;-70
2020/12/23 10:06:41;;;;;;;40.95;30.30;;;11.70;99.90;;;;;;5071173;28;20501;-70
2020/12/23 10:09:07;;;;;;;34.88;20.13;;;11.70;99.90;;;;;;5070467;28;20044;-70
2020/12/23 10:11:34;;;;;;;;;;;11.70;99.90;;;;;;5075188;28;20040;-70
2020/12/23 10:14:01;;;;;;;24.33;16.83;;;11.70;99.90;;;;;;5071538;28;19924;-70
2020/12/23 10:16:32;;;;;;;23.15;16.02;;;11.70;99.90;;;;;;5071795;28;20080;-70
2020/12/23 10:19:00;;;;;;;21.67;15.88;;;11.70;99.90;;;;;;5068689;28;20047;-71
2020/12/23 10:21:26;;;;;;;24.92;19.27;;;11.70;99.90;;;;;;5060356;28;20047;-70
2020/12/23 10:23:53;;;;;;;;;;;11.80;99.90;;;;;;5070430;28;20040;-70
2020/12/23 10:26:20;;;;;;;14.40;10.25;;;11.80;99.90;;;;;;5070791;28;19924;-70
2020/12/23 10:28:46;;;;;;;11.48;8.63;;;11.80;99.90;;;;;;5053962;28;20041;-70
2020/12/23 10:31:14;;;;;;;;;;;11.80;99.90;;;;;;5055123;28;20112;-71
2020/12/23 10:33:41;;;;;;;7.63;6.80;;;11.90;99.90;;;;;;5081364;28;20018;-71
2020/12/23 10:36:12;;;;;;;8.38;6.93;;;11.90;99.90;;;;;;5068030;28;20048;-70
2020/12/23 10:38:39;;;;;;;11.48;10.27;;;11.90;99.90;;;;;;5068211;28;20113;-70
2020/12/23 10:41:05;;;;;;;4.95;4.45;;;12.00;99.90;;;;;;5070052;28;20127;-70
2020/12/23 10:43:32;;;;;;;7.40;5.75;;;12.00;99.90;;;;;;5072407;28;20052;-70
2020/12/23 10:45:58;;;;;;;10.23;7.57;;;12.00;99.90;;;;;;5069939;28;20040;-71
2020/12/23 10:48:25;;;;;;;5.70;4.95;;;12.00;99.90;;;;;;5072248;28;20041;-71
2020/12/23 10:50:52;;;;;;;5.55;4.40;;;12.00;99.90;;;;;;5070080;28;20045;-70
2020/12/23 10:53:19;;;;;;;5.53;4.90;;;12.00;99.90;;;;;;5072672;28;20115;-71
2020/12/23 10:55:45;;;;;;;4.75;4.25;;;12.00;99.90;;;;;;5069276;28;20048;-69
2020/12/23 10:58:12;;;;;;;4.82;3.95;;;12.00;99.90;;;;;;5072935;28;20068;-69
2020/12/23 11:00:39;;;;;;;3.75;3.40;;;12.00;99.90;;;;;;5056238;28;20036;-70
2020/12/23 11:03:05;;;;;;;3.30;3.00;;;12.00;99.90;;;;;;5072740;28;20412;-69
2020/12/23 11:05:32;;;;;;;2.80;2.60;;;12.00;99.90;;;;;;5068713;28;20076;-69
2020/12/23 11:07:58;;;;;;;2.42;2.30;;;12.00;99.90;;;;;;5072293;28;20043;-69
2020/12/23 11:10:26;;;;;;;2.80;2.20;;;12.00;99.90;;;;;;5067772;28;20097;-69
2020/12/23 11:12:52;;;;;;;2.92;2.30;;;12.10;99.90;;;;;;5072654;28;20045;-69
2020/12/23 11:15:19;;;;;;;2.45;2.25;;;12.00;99.90;;;;;;5072114;28;20539;-69
2020/12/23 11:17:46;;;;;;;3.15;2.85;;;12.10;99.90;;;;;;5069488;28;20397;-69
2020/12/23 11:20:12;;;;;;;4.18;3.17;;;12.00;99.90;;;;;;5072564;28;20083;-69
2020/12/23 11:22:39;;;;;;;;;;;12.00;99.90;;;;;;5069133;28;20101;-69
2020/12/23 11:25:06;;;;;;;9.98;7.07;;;12.00;99.90;;;;;;5071995;28;20392;-69
2020/12/23 11:27:33;;;;;;;7.22;6.43;;;11.90;99.90;;;;;;5069131;28;20040;-69
2020/12/23 11:30:00;;;;;;;7.32;6.20;;;11.90;99.90;;;;;;5072296;28;20048;-69
2020/12/23 11:32:27;;;;;;;13.15;10.10;;;11.90;99.90;;;;;;5068943;28;20465;-70
2020/12/23 11:34:53;;;;;;;10.02;8.98;;;11.90;99.90;;;;;;5072274;28;20469;-69
2020/12/23 11:37:20;;;;;;;9.48;8.38;;;11.90;99.90;;;;;;5069144;28;20079;-70
2020/12/23 11:39:47;;;;;;;9.13;8.13;;;12.00;99.90;;;;;;5071391;28;20102;-69
2020/12/23 11:42:13;;;;;;;8.73;7.57;;;12.00;99.90;;;;;;5069394;28;20140;-69
2020/12/23 11:44:40;;;;;;;12.07;9.23;;;12.00;99.90;;;;;;5071345;28;20051;-69
2020/12/23 11:47:08;;;;;;;11.48;9.88;;;12.10;99.90;;;;;;5069451;28;20068;-69
2020/12/23 11:49:35;;;;;;;12.70;11.27;;;12.00;99.90;;;;;;5071522;28;20131;-69
2020/12/23 11:52:01;;;;;;;13.75;11.02;;;12.10;99.90;;;;;;5069161;28;20065;-69
2020/12/23 11:54:28;;;;;;;13.02;11.60;;;12.10;99.90;;;;;;5071522;28;20112;-69
2020/12/23 11:56:54;;;;;;;11.52;10.35;;;12.00;99.90;;;;;;5052007;28;20053;-69
2020/12/23 11:59:22;;;;;;;14.13;11.32;;;12.00;99.90;;;;;;5068688;28;20041;-69
2020/12/23 12:01:50;;;;;;;14.43;12.60;;;12.00;99.90;;;;;;5071729;28;20428;-71
2020/12/23 12:04:16;;;;;;;13.35;11.70;;;12.10;99.90;;;;;;5068847;28;20044;-71
2020/12/23 12:06:43;;;;;;;13.45;11.90;;;12.10;99.90;;;;;;5070665;28;20127;-71
2020/12/23 12:09:09;;;;;;;11.43;10.00;;;12.10;99.90;;;;;;5068333;28;20147;-70
2020/12/23 12:11:36;;;;;;;9.35;8.20;;;12.10;99.90;;;;;;5071526;28;20067;-70
2020/12/23 12:14:02;;;;;;;10.50;8.00;;;12.20;99.90;;;;;;5068856;28;20063;-70
2020/12/23 12:16:29;;;;;;;;;;;12.20;99.90;;;;;;5071432;28;20072;-70
2020/12/23 12:18:56;;;;;;;8.25;7.45;;;12.20;99.90;;;;;;5101475;28;19920;-71
2020/12/23 12:21:26;;;;;;;12.77;11.40;;;12.20;99.90;;;;;;5071492;28;20485;-70
2020/12/23 12:23:52;;;;;;;10.57;9.45;;;12.20;99.90;;;;;;5072218;28;20042;-70
2020/12/23 12:26:19;;;;;;;89.25;32.33;;;12.20;99.90;;;;;;5075846;28;20086;-70
2020/12/23 12:28:46;;;;;;;26.30;14.98;;;12.20;99.90;;;;;;5072471;28;20040;-70
2020/12/23 12:31:12;;;;;;;35.50;16.23;;;12.20;99.90;;;;;;5075677;28;20040;-70
2020/12/23 12:33:39;;;;;;;10.40;9.20;;;12.20;99.90;;;;;;5071711;28;20044;-70
2020/12/23 12:36:06;;;;;;;33.75;16.08;;;12.30;99.90;;;;;;5075365;28;20050;-71
2020/12/23 12:38:33;;;;;;;25.48;12.07;;;12.20;99.90;;;;;;5074721;28;20048;-71
2020/12/23 12:40:59;;;;;;;7.70;7.00;;;12.20;99.90;;;;;;5072900;28;20049;-71
2020/12/23 12:43:26;;;;;;;78.45;26.27;;;12.30;99.90;;;;;;5074559;28;20051;-71
2020/12/23 12:45:52;;;;;;;18.67;10.43;;;12.30;99.90;;;;;;5072551;28;20382;-71
2020/12/23 12:48:19;;;;;;;28.83;11.88;;;12.30;99.90;;;;;;5075127;28;20070;-71